Terminal Aerodrome Forecast
Issued by NWS Twin Cities, MN

Home | Current Version | Previous Version | Text Only | Print | Product List | Glossary Off
Versions: 1 2 3 4 5 6 7 8 9 10 11 12 13 14 15 16 17 18 19 20

000
FTUS43 KMPX 222339
TAFSTC
TAF
KSTC 222339Z 2300/2324 17016G24KT P6SM FEW250
     FM230300 16012KT P6SM BKN110 WS020/18045KT
     FM230900 16010KT 6SM SHRA BKN060 WS020/20050KT
      TEMPO 2309/2312 3SM TSRA BKN030CB
     FM231200 18014G20KT 5SM -RA SCT025 BKN040
      TEMPO 2312/2315 2SM TSRA BKN025CB
     FM231500 19014G20KT P6SM VCSH OVC040
     FM232000 21011KT 6SM SHRA BKN060
      TEMPO 2320/2324 3SM TSRA BKN030CB=

USA.gov is the U.S. government's official web portal to all federal, state and local government web resources and services.